Time;durP1;ratioP1;P1;durP2;ratioP2;P2;SDS_P1;SDS_P2;PMS_P1;PMS_P2;Temp;Humidity;BMP_temperature;BMP_pressure;BME280_temperature;BME280_humidity;BME280_pressure;Samples;Min_cycle;Max_cycle;Signal;HPM_P1;HPM_P2
2022/11/28 00:00:01;;;;;;;10.80;9.70;;;;;;;;;;5033355;28;20998;-72
2022/11/28 00:03:01;;;;;;;13.27;10.40;;;;;;;;;;5029783;28;20483;-72
2022/11/28 00:05:53;;;;;;;12.97;9.40;;;;;;;;;;5031305;28;20463;-72
2022/11/28 00:08:42;;;;;;;11.87;9.90;;;;;;;;;;5033004;28;20516;-72
2022/11/28 00:11:33;;;;;;;12.40;9.93;;;;;;;;;;5032419;28;20467;-72
2022/11/28 00:14:24;;;;;;;12.23;10.00;;;;;;;;;;5034776;28;20467;-72
2022/11/28 00:17:15;;;;;;;15.33;9.27;;;;;;;;;;5032076;28;20583;-72
2022/11/28 00:20:12;;;;;;;11.77;9.10;;;;;;;;;;5030659;28;20462;-72
2022/11/28 00:23:02;;;;;;;12.07;8.90;;;;;;;;;;5029613;28;20498;-72
2022/11/28 00:25:58;;;;;;;12.80;9.73;;;;;;;;;;5036269;28;20456;-72
2022/11/28 00:28:54;;;;;;;10.90;9.33;;;;;;;;;;5036849;28;20443;-72
2022/11/28 00:31:44;;;;;;;10.93;8.97;;;;;;;;;;5035037;28;20483;-72
2022/11/28 00:34:32;;;;;;;14.43;9.73;;;;;;;;;;5028257;28;20471;-72
2022/11/28 00:37:23;;;;;;;10.93;9.33;;;;;;;;;;5029656;28;20618;-72
2022/11/28 00:40:18;;;;;;;11.63;8.83;;;;;;;;;;5026267;28;21140;-72
2022/11/28 00:43:10;;;;;;;9.70;8.50;;;;;;;;;;5036297;28;20486;-72
2022/11/28 00:45:59;;;;;;;11.40;8.70;;;;;;;;;;5030739;28;20487;-72
2022/11/28 00:48:51;;;;;;;9.20;8.10;;;;;;;;;;5039054;28;20474;-72
2022/11/28 00:51:55;;;;;;;10.90;8.33;;;;;;;;;;5040387;28;20487;-72
2022/11/28 00:54:44;;;;;;;10.03;8.57;;;;;;;;;;5057010;28;20447;-72
2022/11/28 00:57:36;;;;;;;9.80;7.60;;;;;;;;;;5054904;28;20477;-72
2022/11/28 01:00:37;;;;;;;12.13;8.30;;;;;;;;;;5033280;28;20442;-72
2022/11/28 01:03:31;;;;;;;11.00;8.40;;;;;;;;;;5020563;28;20494;-72
2022/11/28 01:06:23;;;;;;;11.50;8.03;;;;;;;;;;5034830;28;20472;-72
2022/11/28 01:09:28;;;;;;;9.20;7.77;;;;;;;;;;5041197;28;20506;-72
2022/11/28 01:12:18;;;;;;;10.93;8.43;;;;;;;;;;5018601;28;20863;-73
2022/11/28 01:15:12;;;;;;;9.77;7.90;;;;;;;;;;5037472;28;20482;-72
2022/11/28 01:18:07;;;;;;;10.67;8.40;;;;;;;;;;5037205;28;20493;-72
2022/11/28 01:21:00;;;;;;;9.40;7.80;;;;;;;;;;5038378;28;20483;-72
2022/11/28 01:23:51;;;;;;;12.90;7.80;;;;;;;;;;5038288;28;20479;-72
2022/11/28 01:26:40;;;;;;;11.47;8.30;;;;;;;;;;5042348;28;20451;-72
2022/11/28 01:29:43;;;;;;;9.97;8.20;;;;;;;;;;5041123;28;20462;-72
2022/11/28 01:32:33;;;;;;;11.17;8.80;;;;;;;;;;5039351;28;20537;-73
2022/11/28 01:35:26;;;;;;;10.47;8.60;;;;;;;;;;5035631;28;20972;-72
2022/11/28 01:38:18;;;;;;;8.93;7.80;;;;;;;;;;5022693;28;21677;-72
2022/11/28 01:41:17;;;;;;;10.10;8.00;;;;;;;;;;5033665;28;20483;-72
2022/11/28 01:44:12;;;;;;;9.50;7.30;;;;;;;;;;5031169;28;20480;-72
2022/11/28 01:47:06;;;;;;;13.27;8.83;;;;;;;;;;5029997;28;20464;-72
2022/11/28 01:49:57;;;;;;;9.60;8.50;;;;;;;;;;5034745;28;20454;-72
2022/11/28 01:52:54;;;;;;;12.10;8.63;;;;;;;;;;5032284;28;20537;-72
2022/11/28 01:55:44;;;;;;;9.90;7.80;;;;;;;;;;5034026;28;20462;-72
2022/11/28 01:58:39;;;;;;;9.53;7.90;;;;;;;;;;5033053;28;20472;-72
2022/11/28 02:01:31;;;;;;;8.30;7.20;;;;;;;;;;5025722;28;20480;-72
2022/11/28 02:04:23;;;;;;;8.47;7.13;;;;;;;;;;5032991;28;20582;-72
2022/11/28 02:07:17;;;;;;;10.90;8.90;;;;;;;;;;5027178;28;20978;-72
2022/11/28 02:10:13;;;;;;;9.03;7.80;;;;;;;;;;5032663;28;20462;-72
2022/11/28 02:13:11;;;;;;;6.93;6.23;;;;;;;;;;5029440;28;20487;-72
2022/11/28 02:16:12;;;;;;;8.53;7.60;;;;;;;;;;5034174;28;20470;-72
2022/11/28 02:19:06;;;;;;;9.93;7.57;;;;;;;;;;5033317;28;20483;-72
2022/11/28 02:21:57;;;;;;;8.93;7.13;;;;;;;;;;5032084;28;20842;-74
2022/11/28 02:25:11;;;;;;;9.00;8.10;;;;;;;;;;5037897;28;20450;-72
2022/11/28 02:28:19;;;;;;;11.13;8.17;;;;;;;;;;5027462;28;20469;-72
2022/11/28 02:31:16;;;;;;;10.10;7.73;;;;;;;;;;5035945;28;20478;-72
2022/11/28 02:34:12;;;;;;;9.13;7.57;;;;;;;;;;5039856;28;20483;-72
2022/11/28 02:37:04;;;;;;;11.40;7.73;;;;;;;;;;5035418;28;22024;-72
2022/11/28 02:40:02;;;;;;;9.67;7.93;;;;;;;;;;5037542;28;20478;-72
2022/11/28 02:43:02;;;;;;;12.50;7.37;;;;;;;;;;5040501;28;20483;-72
2022/11/28 02:46:04;;;;;;;9.47;7.67;;;;;;;;;;5034691;28;20447;-72
2022/11/28 02:48:57;;;;;;;8.53;7.63;;;;;;;;;;5038960;28;20459;-72
2022/11/28 02:51:49;;;;;;;8.70;7.47;;;;;;;;;;5033193;28;20472;-72
2022/11/28 02:54:41;;;;;;;10.47;7.90;;;;;;;;;;5032778;28;21124;-72
2022/11/28 02:57:35;;;;;;;9.00;7.00;;;;;;;;;;5031832;28;20999;-72
2022/11/28 03:00:28;;;;;;;10.40;7.30;;;;;;;;;;5037504;28;20458;-72
2022/11/28 03:03:23;;;;;;;9.40;7.90;;;;;;;;;;5034238;28;20649;-72
2022/11/28 03:06:17;;;;;;;12.17;8.13;;;;;;;;;;5035452;28;20547;-72
2022/11/28 03:09:15;;;;;;;9.20;7.80;;;;;;;;;;5034906;28;20978;-72
2022/11/28 03:12:09;;;;;;;8.20;7.17;;;;;;;;;;5034879;28;20845;-72
2022/11/28 03:15:03;;;;;;;8.30;6.87;;;;;;;;;;5037267;28;20826;-72
2022/11/28 03:17:55;;;;;;;11.93;8.50;;;;;;;;;;5031794;28;20447;-72
2022/11/28 03:20:46;;;;;;;10.73;7.60;;;;;;;;;;5039585;28;20471;-72
2022/11/28 03:23:38;;;;;;;8.70;7.77;;;;;;;;;;5023592;28;20474;-72
2022/11/28 03:26:39;;;;;;;9.00;7.63;;;;;;;;;;5032274;28;20474;-72
2022/11/28 03:29:34;;;;;;;7.73;6.70;;;;;;;;;;5039396;28;20587;-72
2022/11/28 03:32:29;;;;;;;8.77;7.63;;;;;;;;;;5030635;28;20505;-73
2022/11/28 03:35:29;;;;;;;9.50;7.67;;;;;;;;;;5040626;28;20475;-72
2022/11/28 03:38:26;;;;;;;9.53;6.97;;;;;;;;;;5035454;28;21081;-73
2022/11/28 03:41:19;;;;;;;8.87;7.27;;;;;;;;;;5031041;28;20485;-72
2022/11/28 03:44:11;;;;;;;8.43;7.47;;;;;;;;;;5040024;28;20476;-72
2022/11/28 03:47:01;;;;;;;10.00;6.93;;;;;;;;;;5027645;28;20466;-72
2022/11/28 03:49:57;;;;;;;9.73;7.67;;;;;;;;;;5031555;28;20463;-72
2022/11/28 03:52:58;;;;;;;9.43;8.30;;;;;;;;;;5026186;28;20479;-72
2022/11/28 03:55:55;;;;;;;11.00;7.57;;;;;;;;;;5032986;28;20448;-72
2022/11/28 03:58:48;;;;;;;8.50;7.20;;;;;;;;;;5032144;28;20576;-72
2022/11/28 04:01:44;;;;;;;8.23;7.40;;;;;;;;;;5029702;28;20497;-72
2022/11/28 04:04:37;;;;;;;8.43;7.30;;;;;;;;;;5032075;28;20461;-72
2022/11/28 04:07:42;;;;;;;;;;;;;;;;;;;;;
2022/11/28 04:10:34;;;;;;;8.83;7.83;;;;;;;;;;5037397;28;20570;-72
2022/11/28 04:13:26;;;;;;;12.00;8.63;;;;;;;;;;5032087;28;21255;-72
2022/11/28 04:16:19;;;;;;;8.57;7.27;;;;;;;;;;5029629;28;21062;-72
2022/11/28 04:19:12;;;;;;;8.70;7.50;;;;;;;;;;5026498;28;20483;-72
2022/11/28 04:22:03;;;;;;;9.40;7.73;;;;;;;;;;5028594;28;20860;-72
2022/11/28 04:24:58;;;;;;;9.70;8.00;;;;;;;;;;5031295;28;20838;-72
2022/11/28 04:27:53;;;;;;;9.60;7.73;;;;;;;;;;5027185;28;20458;-72
2022/11/28 04:30:43;;;;;;;11.70;8.20;;;;;;;;;;5024153;28;21063;-72
2022/11/28 04:33:33;;;;;;;10.20;8.00;;;;;;;;;;5023028;28;20988;-72
2022/11/28 04:36:31;;;;;;;9.93;7.80;;;;;;;;;;5023738;28;20455;-72
2022/11/28 04:39:23;;;;;;;8.43;7.60;;;;;;;;;;5033568;28;20478;-72
2022/11/28 04:42:15;;;;;;;9.83;7.77;;;;;;;;;;5031369;28;21088;-72
2022/11/28 04:45:09;;;;;;;8.23;7.10;;;;;;;;;;5034037;28;20944;-72
2022/11/28 04:47:58;;;;;;;9.23;7.13;;;;;;;;;;5030430;28;20459;-72
2022/11/28 04:50:54;;;;;;;9.63;8.13;;;;;;;;;;5030084;28;20468;-72
2022/11/28 04:53:48;;;;;;;11.17;7.80;;;;;;;;;;5036412;28;20471;-72
2022/11/28 04:56:41;;;;;;;7.83;7.03;;;;;;;;;;5028246;28;20675;-72
2022/11/28 04:59:35;;;;;;;9.00;7.00;;;;;;;;;;5032318;28;20475;-72
2022/11/28 05:02:28;;;;;;;10.20;7.83;;;;;;;;;;5032857;28;20472;-72
2022/11/28 05:05:19;;;;;;;8.93;7.50;;;;;;;;;;5033254;28;20456;-72
2022/11/28 05:08:08;;;;;;;9.07;7.80;;;;;;;;;;5036046;28;20463;-72
2022/11/28 05:11:01;;;;;;;8.90;7.80;;;;;;;;;;5033083;28;20480;-72
2022/11/28 05:13:57;;;;;;;8.47;7.40;;;;;;;;;;5033288;28;20601;-72
2022/11/28 05:16:47;;;;;;;10.43;7.30;;;;;;;;;;5036931;28;20456;-71
2022/11/28 05:19:36;;;;;;;9.17;7.30;;;;;;;;;;5036495;28;20482;-72
2022/11/28 05:22:30;;;;;;;8.00;7.20;;;;;;;;;;5034810;28;20472;-73
2022/11/28 05:25:22;;;;;;;9.60;7.53;;;;;;;;;;5038207;28;20463;-72
2022/11/28 05:28:15;;;;;;;8.73;7.67;;;;;;;;;;5034576;28;20455;-72
2022/11/28 05:31:09;;;;;;;8.20;7.40;;;;;;;;;;5035793;28;20900;-72
2022/11/28 05:33:58;;;;;;;9.23;8.33;;;;;;;;;;5035634;28;21089;-72
2022/11/28 05:36:46;;;;;;;9.37;7.90;;;;;;;;;;5052968;28;20477;-73
2022/11/28 05:39:42;;;;;;;8.40;7.37;;;;;;;;;;5057360;28;20513;-72
2022/11/28 05:42:40;;;;;;;8.73;7.83;;;;;;;;;;5043773;28;20501;-72
2022/11/28 05:45:33;;;;;;;10.13;8.20;;;;;;;;;;5039916;28;20455;-73
2022/11/28 05:48:24;;;;;;;11.50;7.70;;;;;;;;;;5036270;28;20460;-72
2022/11/28 05:51:15;;;;;;;8.93;8.13;;;;;;;;;;5032256;28;20482;-72
2022/11/28 05:54:06;;;;;;;9.80;8.80;;;;;;;;;;5034544;28;20482;-73
2022/11/28 05:56:58;;;;;;;11.40;8.80;;;;;;;;;;5027534;28;20466;-73
2022/11/28 05:59:48;;;;;;;9.20;7.67;;;;;;;;;;5025466;28;20493;-72
2022/11/28 06:02:38;;;;;;;8.93;7.97;;;;;;;;;;5028752;28;20497;-73
2022/11/28 06:05:31;;;;;;;10.40;8.70;;;;;;;;;;5021930;28;20452;-73
2022/11/28 06:08:30;;;;;;;10.73;8.37;;;;;;;;;;5021512;28;20458;-73
2022/11/28 06:11:22;;;;;;;9.97;8.37;;;;;;;;;;5031103;28;20488;-72
2022/11/28 06:14:22;;;;;;;9.90;8.27;;;;;;;;;;5019677;28;20485;-73
2022/11/28 06:17:12;;;;;;;9.97;8.20;;;;;;;;;;5022189;28;20593;-72
2022/11/28 06:20:06;;;;;;;11.50;8.83;;;;;;;;;;5019865;28;20486;-73
2022/11/28 06:23:00;;;;;;;10.23;8.93;;;;;;;;;;5021131;28;20629;-73
2022/11/28 06:25:49;;;;;;;10.33;9.27;;;;;;;;;;5013218;28;20455;-73
2022/11/28 06:28:40;;;;;;;12.10;8.70;;;;;;;;;;5022477;28;20449;-73
2022/11/28 06:31:29;;;;;;;10.90;8.40;;;;;;;;;;5019270;28;20485;-73
2022/11/28 06:34:22;;;;;;;11.37;8.73;;;;;;;;;;5019207;28;20475;-73
2022/11/28 06:37:14;;;;;;;10.80;8.50;;;;;;;;;;5023257;28;21243;-73
2022/11/28 06:40:02;;;;;;;12.20;9.13;;;;;;;;;;5020364;28;20471;-73
2022/11/28 06:42:51;;;;;;;9.70;8.47;;;;;;;;;;5016952;28;20491;-73
2022/11/28 06:45:40;;;;;;;9.23;7.97;;;;;;;;;;5009056;28;20463;-73
2022/11/28 06:48:29;;;;;;;11.90;9.07;;;;;;;;;;5017233;28;20454;-74
2022/11/28 06:51:17;;;;;;;11.27;8.30;;;;;;;;;;5021435;28;20481;-73
2022/11/28 06:54:08;;;;;;;9.80;8.47;;;;;;;;;;5018830;28;20553;-73
2022/11/28 06:56:56;;;;;;;10.23;8.60;;;;;;;;;;5014962;28;20482;-73
2022/11/28 06:59:45;;;;;;;9.80;8.10;;;;;;;;;;5019333;28;20513;-73
2022/11/28 07:02:34;;;;;;;8.80;7.87;;;;;;;;;;5023471;28;20571;-73
2022/11/28 07:05:26;;;;;;;9.80;8.80;;;;;;;;;;5020069;28;20562;-73
2022/11/28 07:08:16;;;;;;;11.50;8.10;;;;;;;;;;5029311;28;20459;-72
2022/11/28 07:11:11;;;;;;;10.50;8.40;;;;;;;;;;5034201;28;20488;-73
2022/11/28 07:14:02;;;;;;;13.03;8.80;;;;;;;;;;5040316;28;21767;-73
2022/11/28 07:16:50;;;;;;;11.17;8.70;;;;;;;;;;5030549;28;20457;-73
2022/11/28 07:19:42;;;;;;;9.60;8.03;;;;;;;;;;5033217;28;20473;-73
2022/11/28 07:22:32;;;;;;;10.00;8.20;;;;;;;;;;5033217;28;20486;-73
2022/11/28 07:25:22;;;;;;;10.03;8.90;;;;;;;;;;5015597;28;20458;-73
2022/11/28 07:28:12;;;;;;;11.43;9.40;;;;;;;;;;5023193;28;20506;-72
2022/11/28 07:31:10;;;;;;;13.67;9.43;;;;;;;;;;5012273;28;20515;-73
2022/11/28 07:34:00;;;;;;;10.67;8.87;;;;;;;;;;5019176;28;20501;-73
2022/11/28 07:36:51;;;;;;;11.67;8.73;;;;;;;;;;5024359;28;22089;-73
2022/11/28 07:39:41;;;;;;;12.07;9.33;;;;;;;;;;5024283;28;20587;-74
2022/11/28 07:42:30;;;;;;;11.57;10.03;;;;;;;;;;5015793;28;23887;-73
2022/11/28 07:45:20;;;;;;;14.30;10.40;;;;;;;;;;5019902;28;20459;-73
2022/11/28 07:48:10;;;;;;;12.40;9.37;;;;;;;;;;5019015;28;20470;-73
2022/11/28 07:51:01;;;;;;;12.87;10.80;;;;;;;;;;5016290;28;20632;-73
2022/11/28 07:53:50;;;;;;;12.13;9.70;;;;;;;;;;5021941;28;20575;-73
2022/11/28 07:56:39;;;;;;;12.03;10.50;;;;;;;;;;5010917;28;20504;-73
2022/11/28 07:59:48;;;;;;;13.43;10.40;;;;;;;;;;5018464;28;20448;-73
2022/11/28 08:02:41;;;;;;;11.57;10.30;;;;;;;;;;5033681;28;20902;-73
2022/11/28 08:05:30;;;;;;;14.83;10.67;;;;;;;;;;5018496;28;21046;-73
2022/11/28 08:08:20;;;;;;;10.50;9.40;;;;;;;;;;5015911;28;21301;-73
2022/11/28 08:11:09;;;;;;;12.33;10.00;;;;;;;;;;5032734;28;20559;-72
2022/11/28 08:13:58;;;;;;;12.27;10.80;;;;;;;;;;5034159;28;20483;-73
2022/11/28 08:16:48;;;;;;;12.50;10.73;;;;;;;;;;5032950;28;21542;-73
2022/11/28 08:19:38;;;;;;;14.67;11.90;;;;;;;;;;5032511;28;20940;-73
2022/11/28 08:22:27;;;;;;;13.27;10.10;;;;;;;;;;5033648;28;21109;-73
2022/11/28 08:25:15;;;;;;;12.23;10.33;;;;;;;;;;5018661;28;20463;-73
2022/11/28 08:28:04;;;;;;;11.97;9.43;;;;;;;;;;5030915;28;20466;-73
2022/11/28 08:30:53;;;;;;;12.90;10.10;;;;;;;;;;5032510;28;20478;-72
2022/11/28 08:33:42;;;;;;;13.80;10.70;;;;;;;;;;5027701;28;20474;-72
2022/11/28 08:36:32;;;;;;;13.07;11.67;;;;;;;;;;5030116;28;20461;-73
2022/11/28 08:39:20;;;;;;;13.90;10.00;;;;;;;;;;5028492;28;20599;-72
2022/11/28 08:42:13;;;;;;;13.00;10.43;;;;;;;;;;5028917;28;20510;-73
2022/11/28 08:45:01;;;;;;;16.30;11.93;;;;;;;;;;5053746;28;20493;-73
2022/11/28 08:47:50;;;;;;;14.00;10.57;;;;;;;;;;5060712;28;20491;-73
2022/11/28 08:50:46;;;;;;;12.30;10.30;;;;;;;;;;5046169;28;20483;-73
2022/11/28 08:53:37;;;;;;;14.43;11.37;;;;;;;;;;5033708;28;21483;-73
2022/11/28 08:56:30;;;;;;;14.53;10.93;;;;;;;;;;5035233;28;20452;-72
2022/11/28 08:59:24;;;;;;;13.80;10.77;;;;;;;;;;5034458;28;20594;-73
2022/11/28 09:02:13;;;;;;;13.80;10.67;;;;;;;;;;5029147;28;20528;-73
2022/11/28 09:05:01;;;;;;;12.50;10.60;;;;;;;;;;5031152;28;20549;-73
2022/11/28 09:07:50;;;;;;;12.23;10.93;;;;;;;;;;5039527;28;20532;-72
2022/11/28 09:10:42;;;;;;;15.70;12.20;;;;;;;;;;5036434;28;20475;-73
2022/11/28 09:13:31;;;;;;;14.07;10.77;;;;;;;;;;5033693;28;20485;-73
2022/11/28 09:16:20;;;;;;;12.93;10.70;;;;;;;;;;5028039;28;20459;-73
2022/11/28 09:19:09;;;;;;;14.70;11.07;;;;;;;;;;5035078;28;20499;-73
2022/11/28 09:21:58;;;;;;;14.03;10.77;;;;;;;;;;5027993;28;20485;-73
2022/11/28 09:24:46;;;;;;;13.97;10.60;;;;;;;;;;5024702;28;20478;-73
2022/11/28 09:27:36;;;;;;;13.60;11.03;;;;;;;;;;5035036;28;20492;-73
2022/11/28 09:30:25;;;;;;;14.27;11.37;;;;;;;;;;5037852;28;20459;-73
2022/11/28 09:33:14;;;;;;;12.57;10.90;;;;;;;;;;5034298;28;20480;-73
2022/11/28 09:36:05;;;;;;;15.57;11.07;;;;;;;;;;5037902;28;20467;-73
2022/11/28 09:38:54;;;;;;;13.90;11.60;;;;;;;;;;5031052;28;21599;-73
2022/11/28 09:41:53;;;;;;;16.20;10.60;;;;;;;;;;5030867;28;20486;-73
2022/11/28 09:44:46;;;;;;;12.63;9.87;;;;;;;;;;5037926;28;20466;-73
2022/11/28 09:47:37;;;;;;;12.03;10.80;;;;;;;;;;5034221;28;20455;-73
2022/11/28 09:50:27;;;;;;;11.83;10.40;;;;;;;;;;5038859;28;20459;-73
2022/11/28 09:53:24;;;;;;;13.03;11.10;;;;;;;;;;5030065;28;20674;-73
2022/11/28 09:56:20;;;;;;;13.30;10.87;;;;;;;;;;5034812;28;20467;-73
2022/11/28 09:59:13;;;;;;;12.50;10.50;;;;;;;;;;5033219;28;20455;-73
2022/11/28 10:02:11;;;;;;;13.13;10.83;;;;;;;;;;5030746;28;20569;-73
2022/11/28 10:05:06;;;;;;;11.63;10.40;;;;;;;;;;5024698;28;21307;-73
2022/11/28 10:08:02;;;;;;;13.67;10.10;;;;;;;;;;5024866;28;21031;-73
2022/11/28 10:10:56;;;;;;;14.10;10.73;;;;;;;;;;5025753;28;20480;-73
2022/11/28 10:13:50;;;;;;;14.33;10.33;;;;;;;;;;5053443;28;20502;-73
2022/11/28 10:17:00;;;;;;;14.53;10.50;;;;;;;;;;5053086;28;20486;-73
2022/11/28 10:19:53;;;;;;;13.40;9.63;;;;;;;;;;5038875;28;20458;-73
2022/11/28 10:22:48;;;;;;;13.80;10.40;;;;;;;;;;5030149;28;20477;-73
2022/11/28 10:25:40;;;;;;;11.80;10.20;;;;;;;;;;5030070;28;20819;-73
2022/11/28 10:28:30;;;;;;;13.20;11.00;;;;;;;;;;5031304;28;20463;-73
2022/11/28 10:31:20;;;;;;;14.50;10.60;;;;;;;;;;5022570;28;20482;-73
2022/11/28 10:34:15;;;;;;;11.07;9.97;;;;;;;;;;5026154;28;20480;-73
2022/11/28 10:37:07;;;;;;;11.57;9.93;;;;;;;;;;5019579;28;20456;-73
2022/11/28 10:39:56;;;;;;;13.37;10.00;;;;;;;;;;5026722;28;20481;-73
2022/11/28 10:42:49;;;;;;;13.00;9.80;;;;;;;;;;5033998;28;20533;-73
2022/11/28 10:45:45;;;;;;;12.33;10.20;;;;;;;;;;5030541;28;20458;-73
2022/11/28 10:48:37;;;;;;;13.40;10.20;;;;;;;;;;5028320;28;20551;-73
2022/11/28 10:51:34;;;;;;;14.73;10.93;;;;;;;;;;5039724;28;20489;-72
2022/11/28 10:54:32;;;;;;;14.07;10.87;;;;;;;;;;5030268;28;20530;-73
2022/11/28 10:57:23;;;;;;;11.97;9.93;;;;;;;;;;5027070;28;21013;-73
2022/11/28 11:00:12;;;;;;;14.80;10.57;;;;;;;;;;5035886;28;20611;-73
2022/11/28 11:03:02;;;;;;;16.13;10.63;;;;;;;;;;5029915;28;20478;-73
2022/11/28 11:05:51;;;;;;;16.87;11.40;;;;;;;;;;5038200;28;20458;-73
2022/11/28 11:08:42;;;;;;;14.43;10.67;;;;;;;;;;5038017;28;20483;-73
2022/11/28 11:11:34;;;;;;;13.10;10.77;;;;;;;;;;5032985;28;20506;-73
2022/11/28 11:14:33;;;;;;;13.33;10.20;;;;;;;;;;5019168;28;20479;-73
2022/11/28 11:17:25;;;;;;;18.17;10.90;;;;;;;;;;5021184;28;20479;-73
2022/11/28 11:20:28;;;;;;;12.53;10.27;;;;;;;;;;5028951;28;20970;-73
2022/11/28 11:23:17;;;;;;;11.93;9.53;;;;;;;;;;5037111;28;20513;-73
2022/11/28 11:26:09;;;;;;;13.27;10.20;;;;;;;;;;5022986;28;20461;-73
2022/11/28 11:28:59;;;;;;;12.63;9.77;;;;;;;;;;5032484;28;20455;-73
2022/11/28 11:31:50;;;;;;;11.80;9.20;;;;;;;;;;5035114;28;20557;-73
2022/11/28 11:34:44;;;;;;;11.77;9.10;;;;;;;;;;5033836;28;20941;-73
2022/11/28 11:37:37;;;;;;;13.57;10.80;;;;;;;;;;5034370;28;21335;-72
2022/11/28 11:40:26;;;;;;;14.67;10.33;;;;;;;;;;5024192;28;23353;-72
2022/11/28 11:43:26;;;;;;;12.80;10.80;;;;;;;;;;5033378;28;20640;-72
2022/11/28 11:46:17;;;;;;;12.67;10.17;;;;;;;;;;5039738;28;20463;-72
2022/11/28 11:49:05;;;;;;;12.80;10.77;;;;;;;;;;5037330;28;20516;-72
2022/11/28 11:51:56;;;;;;;12.10;10.50;;;;;;;;;;5035889;28;20494;-72
2022/11/28 11:54:58;;;;;;;12.33;10.73;;;;;;;;;;5035127;28;20467;-72
2022/11/28 11:57:48;;;;;;;11.87;10.27;;;;;;;;;;5038001;28;20966;-72
2022/11/28 12:00:39;;;;;;;13.17;10.90;;;;;;;;;;5019322;28;21963;-72
2022/11/28 12:03:33;;;;;;;13.70;10.87;;;;;;;;;;5028153;28;20515;-72
2022/11/28 12:06:25;;;;;;;12.80;10.60;;;;;;;;;;5029703;28;20458;-72
2022/11/28 12:09:21;;;;;;;14.53;11.33;;;;;;;;;;5026457;28;20860;-72
2022/11/28 12:12:13;;;;;;;14.83;10.70;;;;;;;;;;5032717;28;20475;-72
2022/11/28 12:15:02;;;;;;;14.67;10.40;;;;;;;;;;5033624;28;20450;-72
2022/11/28 12:17:58;;;;;;;16.07;12.20;;;;;;;;;;5035083;28;20460;-72
2022/11/28 12:21:05;;;;;;;14.17;11.00;;;;;;;;;;5011891;28;20905;-72
2022/11/28 12:24:06;;;;;;;14.03;10.73;;;;;;;;;;5027552;28;20872;-73
2022/11/28 12:26:59;;;;;;;12.07;10.37;;;;;;;;;;5028153;28;20835;-73
2022/11/28 12:30:02;;;;;;;13.73;10.40;;;;;;;;;;5032532;28;20502;-72
2022/11/28 12:32:55;;;;;;;16.60;11.40;;;;;;;;;;5031739;28;20494;-72
2022/11/28 12:35:44;;;;;;;15.60;11.03;;;;;;;;;;5019268;28;20452;-73
2022/11/28 12:38:39;;;;;;;14.43;11.10;;;;;;;;;;5026627;28;20550;-73
2022/11/28 12:41:43;;;;;;;13.50;10.33;;;;;;;;;;5028601;28;20490;-72
2022/11/28 12:44:40;;;;;;;17.00;10.97;;;;;;;;;;5023359;28;21050;-72
2022/11/28 12:47:35;;;;;;;14.93;10.73;;;;;;;;;;5029048;28;20464;-72
2022/11/28 12:50:29;;;;;;;12.60;10.40;;;;;;;;;;5018173;28;20447;-72
2022/11/28 12:53:28;;;;;;;12.40;10.70;;;;;;;;;;5025874;28;20479;-72
2022/11/28 12:56:27;;;;;;;11.83;9.40;;;;;;;;;;5030789;28;20843;-72
2022/11/28 12:59:21;;;;;;;14.67;10.67;;;;;;;;;;5026808;28;20451;-72
2022/11/28 13:02:21;;;;;;;12.50;10.90;;;;;;;;;;5039009;28;20479;-72
2022/11/28 13:05:17;;;;;;;17.57;10.87;;;;;;;;;;5034597;28;20452;-72
2022/11/28 13:08:17;;;;;;;14.33;10.77;;;;;;;;;;5034065;28;21034;-72
2022/11/28 13:11:13;;;;;;;12.80;10.17;;;;;;;;;;5023992;28;20468;-72
2022/11/28 13:14:05;;;;;;;15.10;10.90;;;;;;;;;;5037642;28;20578;-72
2022/11/28 13:16:56;;;;;;;12.87;10.27;;;;;;;;;;5031507;28;20853;-73
2022/11/28 13:19:47;;;;;;;12.60;10.20;;;;;;;;;;5021934;28;20467;-72
2022/11/28 13:22:42;;;;;;;13.00;10.93;;;;;;;;;;5025148;28;20494;-72
2022/11/28 13:25:35;;;;;;;17.60;11.30;;;;;;;;;;5031977;28;20464;-72
2022/11/28 13:28:28;;;;;;;14.27;10.80;;;;;;;;;;5029287;28;20447;-72
2022/11/28 13:31:20;;;;;;;13.57;10.33;;;;;;;;;;5002933;28;20479;-72
2022/11/28 13:34:13;;;;;;;13.13;10.30;;;;;;;;;;5033634;28;20492;-72
2022/11/28 13:37:05;;;;;;;14.90;10.07;;;;;;;;;;5022271;28;20459;-72
2022/11/28 13:40:17;;;;;;;14.07;10.07;;;;;;;;;;5028314;28;20470;-72
2022/11/28 13:43:11;;;;;;;11.80;10.07;;;;;;;;;;5021622;28;20486;-72
2022/11/28 13:46:02;;;;;;;13.60;9.90;;;;;;;;;;5032267;28;20452;-72
2022/11/28 13:48:58;;;;;;;12.80;10.07;;;;;;;;;;5030305;28;21737;-73
2022/11/28 13:52:21;;;;;;;11.60;9.90;;;;;;;;;;5022217;28;20478;-72
2022/11/28 13:55:25;;;;;;;11.03;9.80;;;;;;;;;;5012084;28;20464;-72
2022/11/28 13:58:19;;;;;;;11.73;9.43;;;;;;;;;;5025874;28;20823;-72
2022/11/28 14:01:11;;;;;;;12.90;10.23;;;;;;;;;;5020963;28;20568;-72
2022/11/28 14:04:07;;;;;;;13.57;10.97;;;;;;;;;;5011620;28;20482;-73
2022/11/28 14:07:01;;;;;;;11.83;10.00;;;;;;;;;;5013076;28;21117;-72
2022/11/28 14:09:54;;;;;;;16.93;11.30;;;;;;;;;;5010842;28;20490;-72
2022/11/28 14:12:48;;;;;;;13.97;10.70;;;;;;;;;;5016234;28;20484;-72
2022/11/28 14:15:45;;;;;;;13.90;10.57;;;;;;;;;;5019752;28;20975;-72
2022/11/28 14:18:39;;;;;;;12.87;10.33;;;;;;;;;;5007863;28;20596;-72
2022/11/28 14:21:49;;;;;;;13.53;9.70;;;;;;;;;;5024444;28;20610;-72
2022/11/28 14:24:52;;;;;;;13.20;10.40;;;;;;;;;;5026967;28;21006;-72
2022/11/28 14:27:47;;;;;;;13.67;10.20;;;;;;;;;;5024559;28;20459;-72
2022/11/28 14:30:37;;;;;;;14.20;10.93;;;;;;;;;;5016082;28;20506;-71
2022/11/28 14:33:32;;;;;;;13.77;10.60;;;;;;;;;;5027694;28;20588;-72
2022/11/28 14:36:27;;;;;;;12.43;9.40;;;;;;;;;;5026328;28;20740;-72
2022/11/28 14:39:34;;;;;;;13.43;10.20;;;;;;;;;;5024589;28;20949;-72
2022/11/28 14:42:35;;;;;;;13.40;10.67;;;;;;;;;;5026662;28;20490;-71
2022/11/28 14:45:44;;;;;;;13.30;10.93;;;;;;;;;;5023361;28;20684;-72
2022/11/28 14:48:35;;;;;;;13.60;10.47;;;;;;;;;;5019999;28;21001;-72
2022/11/28 14:51:55;;;;;;;13.60;11.27;;;;;;;;;;5019944;28;20488;-73
2022/11/28 14:55:05;;;;;;;13.77;10.63;;;;;;;;;;5033543;28;20505;-72
2022/11/28 14:57:57;;;;;;;13.47;10.87;;;;;;;;;;5031337;28;20463;-72
2022/11/28 15:00:49;;;;;;;13.60;11.07;;;;;;;;;;5033254;28;20854;-72
2022/11/28 15:03:43;;;;;;;15.67;11.20;;;;;;;;;;5045477;28;20470;-72
2022/11/28 15:06:33;;;;;;;16.77;11.57;;;;;;;;;;5041265;28;20515;-72
2022/11/28 15:09:27;;;;;;;13.10;10.30;;;;;;;;;;5023501;28;20861;-72
2022/11/28 15:12:19;;;;;;;14.23;11.10;;;;;;;;;;5020169;28;20576;-76
2022/11/28 15:15:12;;;;;;;17.90;11.10;;;;;;;;;;5024510;28;20461;-76
2022/11/28 15:18:01;;;;;;;16.30;11.87;;;;;;;;;;5028579;28;20485;-77
2022/11/28 15:20:54;;;;;;;13.40;10.83;;;;;;;;;;5010068;28;21087;-72
2022/11/28 15:23:43;;;;;;;16.90;11.53;;;;;;;;;;5021652;28;20486;-72
2022/11/28 15:26:32;;;;;;;16.13;11.53;;;;;;;;;;5008417;28;20467;-72
2022/11/28 15:29:22;;;;;;;14.80;11.20;;;;;;;;;;5013344;28;20452;-72
2022/11/28 15:32:14;;;;;;;13.90;11.23;;;;;;;;;;5019168;28;20490;-72
2022/11/28 15:35:06;;;;;;;13.77;10.77;;;;;;;;;;5020639;28;20483;-72
2022/11/28 15:38:01;;;;;;;14.20;11.10;;;;;;;;;;5017069;28;20495;-72
2022/11/28 15:40:51;;;;;;;16.30;11.90;;;;;;;;;;5026084;28;20505;-73
2022/11/28 15:43:43;;;;;;;18.30;12.90;;;;;;;;;;5021022;28;20539;-72
2022/11/28 15:46:32;;;;;;;14.90;12.77;;;;;;;;;;5014827;28;20912;-73
2022/11/28 15:49:29;;;;;;;15.50;11.73;;;;;;;;;;5029165;28;20456;-72
2022/11/28 15:52:18;;;;;;;12.50;10.70;;;;;;;;;;5025287;28;20475;-72
2022/11/28 15:55:16;;;;;;;16.90;13.10;;;;;;;;;;5018709;28;20833;-72
2022/11/28 15:58:18;;;;;;;15.63;12.10;;;;;;;;;;5017709;28;20460;-73
2022/11/28 16:01:11;;;;;;;16.87;12.50;;;;;;;;;;5026949;28;23499;-72
2022/11/28 16:04:01;;;;;;;14.70;11.50;;;;;;;;;;5028666;28;20491;-72
2022/11/28 16:06:51;;;;;;;13.77;11.60;;;;;;;;;;5004868;28;20446;-73
2022/11/28 16:09:49;;;;;;;17.00;13.30;;;;;;;;;;5022919;28;20458;-73
2022/11/28 16:12:43;;;;;;;17.03;13.13;;;;;;;;;;5028654;28;20545;-72
2022/11/28 16:15:35;;;;;;;17.20;12.93;;;;;;;;;;5026609;28;20439;-73
2022/11/28 16:18:24;;;;;;;18.90;12.40;;;;;;;;;;5022112;28;20862;-73
2022/11/28 16:21:14;;;;;;;17.50;13.93;;;;;;;;;;5033356;28;20490;-73
2022/11/28 16:24:03;;;;;;;17.10;13.27;;;;;;;;;;5028616;28;20860;-73
2022/11/28 16:26:57;;;;;;;20.07;14.30;;;;;;;;;;5033378;28;20456;-73
2022/11/28 16:29:47;;;;;;;15.53;12.40;;;;;;;;;;5031834;28;21006;-73
2022/11/28 16:32:37;;;;;;;18.70;13.67;;;;;;;;;;5034548;28;20486;-73
2022/11/28 16:35:27;;;;;;;19.47;14.23;;;;;;;;;;5021163;28;20458;-73
2022/11/28 16:38:18;;;;;;;15.77;12.83;;;;;;;;;;5011784;28;20805;-73
2022/11/28 16:41:07;;;;;;;16.93;13.43;;;;;;;;;;5017637;28;21180;-73
2022/11/28 16:43:56;;;;;;;16.37;13.93;;;;;;;;;;5024855;28;20482;-73
2022/11/28 16:46:52;;;;;;;22.27;14.20;;;;;;;;;;5027328;28;20460;-73
2022/11/28 16:49:42;;;;;;;17.83;13.03;;;;;;;;;;5033242;28;20476;-73
2022/11/28 16:52:49;;;;;;;17.97;13.80;;;;;;;;;;5034086;28;21024;-73
2022/11/28 16:55:38;;;;;;;18.27;14.27;;;;;;;;;;5034711;28;20593;-73
2022/11/28 16:58:27;;;;;;;17.70;12.93;;;;;;;;;;5030524;28;20831;-73
2022/11/28 17:01:20;;;;;;;17.57;13.77;;;;;;;;;;5014699;28;20493;-73